sensor_id;sensor_type;location;lat;lon;timestamp;pressure;altitude;pressure_sealevel;temperature;humidity
72950;BME280;64868;45.710;9.590;2023-03-14T00:00:19;98163.84;;;10.63;80.90
72950;BME280;64868;45.710;9.590;2023-03-14T00:02:54;98148.22;;;10.65;79.71
72950;BME280;64868;45.710;9.590;2023-03-14T00:05:22;98125.34;;;10.56;79.54
72950;BME280;64868;45.710;9.590;2023-03-14T00:07:52;98130.34;;;10.51;80.51
72950;BME280;64868;45.710;9.590;2023-03-14T00:20:25;98083.81;;;10.43;81.11
72950;BME280;64868;45.710;9.590;2023-03-14T00:22:57;98064.34;;;10.47;79.89
72950;BME280;64868;45.710;9.590;2023-03-14T00:25:30;98066.47;;;10.44;80.16
72950;BME280;64868;45.710;9.590;2023-03-14T00:28:03;98061.47;;;10.49;80.20
72950;BME280;64868;45.710;9.590;2023-03-14T00:30:36;98056.16;;;10.47;80.32
72950;BME280;64868;45.710;9.590;2023-03-14T00:33:06;98036.72;;;10.31;81.21
72950;BME280;64868;45.710;9.590;2023-03-14T00:35:36;98046.47;;;10.34;80.50
72950;BME280;64868;45.710;9.590;2023-03-14T00:38:07;98033.78;;;10.23;81.53
72950;BME280;64868;45.710;9.590;2023-03-14T00:40:38;98046.47;;;10.13;82.61
72950;BME280;64868;45.710;9.590;2023-03-14T00:43:11;98020.00;;;10.24;81.74
72950;BME280;64868;45.710;9.590;2023-03-14T00:45:41;98033.75;;;10.44;81.24
72950;BME280;64868;45.710;9.590;2023-03-14T00:48:11;97993.97;;;10.11;82.44
72950;BME280;64868;45.710;9.590;2023-03-14T00:50:44;97986.41;;;10.35;80.93
72950;BME280;64868;45.710;9.590;2023-03-14T00:53:15;97968.53;;;10.42;80.14
72950;BME280;64868;45.710;9.590;2023-03-14T00:55:45;97967.38;;;10.45;80.74
72950;BME280;64868;45.710;9.590;2023-03-14T00:58:18;97961.22;;;10.43;80.67
72950;BME280;64868;45.710;9.590;2023-03-14T01:00:51;97962.34;;;10.40;81.05
72950;BME280;64868;45.710;9.590;2023-03-14T01:03:23;97966.78;;;10.41;80.93
72950;BME280;64868;45.710;9.590;2023-03-14T01:06:03;97938.06;;;10.28;80.95
72950;BME280;64868;45.710;9.590;2023-03-14T01:08:38;97911.47;;;10.51;79.57
72950;BME280;64868;45.710;9.590;2023-03-14T01:11:13;97950.28;;;10.83;79.31
72950;BME280;64868;45.710;9.590;2023-03-14T01:13:46;97935.50;;;10.76;80.04
72950;BME280;64868;45.710;9.590;2023-03-14T01:16:20;97900.25;;;10.34;79.40
72950;BME280;64868;45.710;9.590;2023-03-14T01:18:52;97923.53;;;10.58;80.22
72950;BME280;64868;45.710;9.590;2023-03-14T01:21:23;97935.56;;;10.55;80.99
72950;BME280;64868;45.710;9.590;2023-03-14T01:23:56;97908.59;;;10.52;80.50
72950;BME280;64868;45.710;9.590;2023-03-14T01:26:29;97893.84;;;10.64;77.87
72950;BME280;64868;45.710;9.590;2023-03-14T01:29:02;97898.63;;;10.82;78.25
72950;BME280;64868;45.710;9.590;2023-03-14T01:31:35;97894.59;;;10.86;78.03
72950;BME280;64868;45.710;9.590;2023-03-14T01:34:07;97895.88;;;10.82;78.54
72950;BME280;64868;45.710;9.590;2023-03-14T01:36:37;97888.84;;;10.79;78.17
72950;BME280;64868;45.710;9.590;2023-03-14T01:39:10;97912.44;;;11.00;77.24
72950;BME280;64868;45.710;9.590;2023-03-14T01:41:40;97903.38;;;10.99;75.75
72950;BME280;64868;45.710;9.590;2023-03-14T01:44:14;97901.66;;;10.98;76.25
72950;BME280;64868;45.710;9.590;2023-03-14T01:46:47;97880.28;;;11.03;75.40
72950;BME280;64868;45.710;9.590;2023-03-14T01:49:31;97857.44;;;10.94;75.48
72950;BME280;64868;45.710;9.590;2023-03-14T01:54:44;97848.41;;;10.94;73.68
72950;BME280;64868;45.710;9.590;2023-03-14T01:57:32;97855.28;;;10.98;74.42
72950;BME280;64868;45.710;9.590;2023-03-14T02:00:14;97856.44;;;11.05;75.09
72950;BME280;64868;45.710;9.590;2023-03-14T02:02:47;97841.09;;;11.04;74.57
72950;BME280;64868;45.710;9.590;2023-03-14T02:05:19;97845.53;;;11.05;74.18
72950;BME280;64868;45.710;9.590;2023-03-14T02:07:54;97821.25;;;11.02;74.98
72950;BME280;64868;45.710;9.590;2023-03-14T02:10:26;97816.25;;;11.07;72.84
72950;BME280;64868;45.710;9.590;2023-03-14T02:13:00;97805.75;;;11.12;74.61
72950;BME280;64868;45.710;9.590;2023-03-14T02:15:29;97807.34;;;10.86;74.81
72950;BME280;64868;45.710;9.590;2023-03-14T02:18:01;97804.31;;;11.08;73.99
72950;BME280;64868;45.710;9.590;2023-03-14T02:20:47;97807.78;;;11.10;73.81
72950;BME280;64868;45.710;9.590;2023-03-14T02:23:24;97788.53;;;11.12;74.17
72950;BME280;64868;45.710;9.590;2023-03-14T02:26:10;97766.00;;;11.00;74.31
72950;BME280;64868;45.710;9.590;2023-03-14T02:28:45;97777.50;;;11.04;72.25
72950;BME280;64868;45.710;9.590;2023-03-14T02:31:18;97781.94;;;11.14;72.77
72950;BME280;64868;45.710;9.590;2023-03-14T02:33:51;97746.75;;;11.11;73.39
72950;BME280;64868;45.710;9.590;2023-03-14T02:36:20;97755.34;;;11.16;72.39
72950;BME280;64868;45.710;9.590;2023-03-14T02:39:23;97770.53;;;11.29;71.34
72950;BME280;64868;45.710;9.590;2023-03-14T02:41:57;97712.66;;;11.35;71.09
72950;BME280;64868;45.710;9.590;2023-03-14T02:44:28;97753.03;;;11.31;70.32
72950;BME280;64868;45.710;9.590;2023-03-14T02:46:59;97732.16;;;11.40;70.16
72950;BME280;64868;45.710;9.590;2023-03-14T02:49:34;97739.38;;;11.41;70.39
72950;BME280;64868;45.710;9.590;2023-03-14T02:52:05;97724.16;;;11.29;70.31
72950;BME280;64868;45.710;9.590;2023-03-14T02:54:38;97690.75;;;11.17;70.58
72950;BME280;64868;45.710;9.590;2023-03-14T02:57:10;97730.44;;;11.39;69.28
72950;BME280;64868;45.710;9.590;2023-03-14T02:59:43;97721.41;;;11.38;67.90
72950;BME280;64868;45.710;9.590;2023-03-14T03:02:15;97727.13;;;11.45;68.65
72950;BME280;64868;45.710;9.590;2023-03-14T03:04:46;97716.97;;;11.37;67.28
72950;BME280;64868;45.710;9.590;2023-03-14T03:07:18;97693.78;;;11.51;68.61
72950;BME280;64868;45.710;9.590;2023-03-14T03:09:49;97725.22;;;11.55;68.08
72950;BME280;64868;45.710;9.590;2023-03-14T03:12:21;97624.03;;;11.39;68.36
72950;BME280;64868;45.710;9.590;2023-03-14T03:14:53;97678.72;;;11.47;66.88
72950;BME280;64868;45.710;9.590;2023-03-14T03:17:26;97668.50;;;11.49;66.76
72950;BME280;64868;45.710;9.590;2023-03-14T03:19:56;97697.38;;;11.52;67.13
72950;BME280;64868;45.710;9.590;2023-03-14T03:22:29;97701.66;;;11.54;66.09
72950;BME280;64868;45.710;9.590;2023-03-14T03:25:01;97690.84;;;11.62;66.11
72950;BME280;64868;45.710;9.590;2023-03-14T03:27:38;97697.88;;;11.65;66.44
72950;BME280;64868;45.710;9.590;2023-03-14T03:30:12;97692.53;;;11.73;65.48
72950;BME280;64868;45.710;9.590;2023-03-14T03:32:39;97701.13;;;11.78;65.15
72950;BME280;64868;45.710;9.590;2023-03-14T03:35:10;97694.69;;;11.69;66.51
72950;BME280;64868;45.710;9.590;2023-03-14T03:37:42;97712.94;;;11.69;67.64
72950;BME280;64868;45.710;9.590;2023-03-14T03:40:12;97669.13;;;11.71;65.22
72950;BME280;64868;45.710;9.590;2023-03-14T03:42:45;97684.53;;;11.62;67.76
72950;BME280;64868;45.710;9.590;2023-03-14T03:45:17;97667.69;;;11.39;69.36
72950;BME280;64868;45.710;9.590;2023-03-14T03:47:45;97688.78;;;11.47;70.18
72950;BME280;64868;45.710;9.590;2023-03-14T03:50:18;97673.78;;;11.33;68.12
72950;BME280;64868;45.710;9.590;2023-03-14T03:52:50;97584.78;;;10.85;70.83
72950;BME280;64868;45.710;9.590;2023-03-14T03:55:23;97639.25;;;11.14;71.40
72950;BME280;64868;45.710;9.590;2023-03-14T03:57:56;97633.78;;;11.14;72.53
72950;BME280;64868;45.710;9.590;2023-03-14T04:00:28;97631.53;;;11.00;73.92
72950;BME280;64868;45.710;9.590;2023-03-14T04:03:01;97612.84;;;11.05;74.22
72950;BME280;64868;45.710;9.590;2023-03-14T04:05:34;97596.09;;;10.90;75.61
72950;BME280;64868;45.710;9.590;2023-03-14T04:08:04;97604.00;;;10.83;76.60
72950;BME280;64868;45.710;9.590;2023-03-14T04:10:37;97594.41;;;10.79;76.12
72950;BME280;64868;45.710;9.590;2023-03-14T04:13:10;97577.94;;;10.81;76.62
72950;BME280;64868;45.710;9.590;2023-03-14T04:15:43;97574.94;;;10.64;77.66
72950;BME280;64868;45.710;9.590;2023-03-14T04:18:15;97585.09;;;10.82;77.45
72950;BME280;64868;45.710;9.590;2023-03-14T04:20:52;97603.34;;;10.71;78.79
72950;BME280;64868;45.710;9.590;2023-03-14T04:23:24;97578.16;;;10.50;79.43
72950;BME280;64868;45.710;9.590;2023-03-14T04:25:57;97559.38;;;10.47;79.03
72950;BME280;64868;45.710;9.590;2023-03-14T04:28:25;97585.31;;;10.61;80.32
72950;BME280;64868;45.710;9.590;2023-03-14T04:30:57;97570.31;;;10.28;79.70
72950;BME280;64868;45.710;9.590;2023-03-14T04:33:30;97628.75;;;10.53;79.84
72950;BME280;64868;45.710;9.590;2023-03-14T04:36:03;97649.00;;;10.50;79.41
72950;BME280;64868;45.710;9.590;2023-03-14T04:38:33;97638.38;;;10.57;77.59
72950;BME280;64868;45.710;9.590;2023-03-14T04:41:01;97601.13;;;10.28;78.53
72950;BME280;64868;45.710;9.590;2023-03-14T04:43:29;97634.09;;;10.54;78.85
72950;BME280;64868;45.710;9.590;2023-03-14T04:46:02;97666.22;;;10.51;79.09
72950;BME280;64868;45.710;9.590;2023-03-14T04:48:34;97615.03;;;10.06;80.31
72950;BME280;64868;45.710;9.590;2023-03-14T04:51:05;97689.31;;;10.46;80.29
72950;BME280;64868;45.710;9.590;2023-03-14T04:53:37;97672.81;;;10.29;80.45
72950;BME280;64868;45.710;9.590;2023-03-14T04:56:10;97659.63;;;10.34;81.27
72950;BME280;64868;45.710;9.590;2023-03-14T04:58:42;97638.97;;;10.41;80.59
72950;BME280;64868;45.710;9.590;2023-03-14T05:01:15;97647.84;;;10.33;81.17
72950;BME280;64868;45.710;9.590;2023-03-14T05:03:48;97636.41;;;10.39;81.22
72950;BME280;64868;45.710;9.590;2023-03-14T05:06:20;97614.31;;;10.13;82.24
72950;BME280;64868;45.710;9.590;2023-03-14T05:08:50;97649.84;;;10.21;81.51
72950;BME280;64868;45.710;9.590;2023-03-14T05:11:23;97668.69;;;10.34;82.39
72950;BME280;64868;45.710;9.590;2023-03-14T05:13:55;97648.88;;;10.32;82.46
72950;BME280;64868;45.710;9.590;2023-03-14T05:16:26;97653.06;;;10.27;81.92
72950;BME280;64868;45.710;9.590;2023-03-14T05:18:58;97668.50;;;10.16;83.94
72950;BME280;64868;45.710;9.590;2023-03-14T05:21:31;97651.00;;;10.09;82.76
72950;BME280;64868;45.710;9.590;2023-03-14T05:24:01;97680.09;;;10.18;82.38
72950;BME280;64868;45.710;9.590;2023-03-14T05:26:31;97657.28;;;10.10;82.41
72950;BME280;64868;45.710;9.590;2023-03-14T05:29:04;97645.53;;;9.90;83.01
72950;BME280;64868;45.710;9.590;2023-03-14T05:31:34;97601.97;;;9.90;83.21
72950;BME280;64868;45.710;9.590;2023-03-14T05:34:02;97602.97;;;9.98;83.41
72950;BME280;64868;45.710;9.590;2023-03-14T05:36:34;97581.34;;;9.87;82.95
72950;BME280;64868;45.710;9.590;2023-03-14T05:39:04;97568.16;;;9.92;82.71
72950;BME280;64868;45.710;9.590;2023-03-14T05:41:37;97572.16;;;9.88;82.91
72950;BME280;64868;45.710;9.590;2023-03-14T05:44:07;97553.69;;;9.63;82.13
72950;BME280;64868;45.710;9.590;2023-03-14T05:46:37;97586.63;;;9.69;82.25
72950;BME280;64868;45.710;9.590;2023-03-14T05:49:10;97569.31;;;9.70;83.30
72950;BME280;64868;45.710;9.590;2023-03-14T05:51:42;97532.91;;;9.91;81.68
72950;BME280;64868;45.710;9.590;2023-03-14T05:54:10;97464.91;;;9.81;81.63
72950;BME280;64868;45.710;9.590;2023-03-14T05:56:43;97454.25;;;9.88;81.61
72950;BME280;64868;45.710;9.590;2023-03-14T05:59:11;97411.88;;;9.85;80.63
72950;BME280;64868;45.710;9.590;2023-03-14T06:01:41;97404.41;;;9.87;81.74
72950;BME280;64868;45.710;9.590;2023-03-14T06:04:11;97476.59;;;9.91;81.30
72950;BME280;64868;45.710;9.590;2023-03-14T06:06:43;97517.16;;;9.85;80.63
72950;BME280;64868;45.710;9.590;2023-03-14T06:09:16;97524.47;;;9.74;81.53
72950;BME280;64868;45.710;9.590;2023-03-14T06:11:46;97537.50;;;9.61;81.61
72950;BME280;64868;45.710;9.590;2023-03-14T06:14:19;97555.56;;;9.62;81.41
72950;BME280;64868;45.710;9.590;2023-03-14T06:16:51;97591.50;;;9.66;82.42
72950;BME280;64868;45.710;9.590;2023-03-14T06:19:21;97603.53;;;9.63;83.04
72950;BME280;64868;45.710;9.590;2023-03-14T06:21:54;97579.59;;;9.47;82.83
72950;BME280;64868;45.710;9.590;2023-03-14T06:24:27;97623.28;;;9.65;82.75
72950;BME280;64868;45.710;9.590;2023-03-14T06:26:59;97520.22;;;8.93;82.25
72950;BME280;64868;45.710;9.590;2023-03-14T06:29:30;97600.47;;;9.37;82.68
72950;BME280;64868;45.710;9.590;2023-03-14T06:32:02;97615.25;;;9.44;83.34
72950;BME280;64868;45.710;9.590;2023-03-14T06:34:35;97619.81;;;9.44;81.94
72950;BME280;64868;45.710;9.590;2023-03-14T06:37:08;97649.22;;;9.60;82.91
72950;BME280;64868;45.710;9.590;2023-03-14T06:39:36;97631.97;;;9.40;83.04
72950;BME280;64868;45.710;9.590;2023-03-14T06:42:08;97641.13;;;9.39;82.61
72950;BME280;64868;45.710;9.590;2023-03-14T06:44:41;97642.56;;;9.43;82.37
72950;BME280;64868;45.710;9.590;2023-03-14T06:47:13;97638.72;;;9.45;82.60
72950;BME280;64868;45.710;9.590;2023-03-14T06:49:46;97618.94;;;9.34;81.55
72950;BME280;64868;45.710;9.590;2023-03-14T06:52:16;97649.44;;;9.47;82.84
72950;BME280;64868;45.710;9.590;2023-03-14T06:54:44;97635.13;;;9.45;82.46
72950;BME280;64868;45.710;9.590;2023-03-14T06:57:12;97636.00;;;9.45;82.30
72950;BME280;64868;45.710;9.590;2023-03-14T06:59:45;97628.69;;;9.46;82.26
72950;BME280;64868;45.710;9.590;2023-03-14T07:02:17;97625.53;;;9.41;81.14
72950;BME280;64868;45.710;9.590;2023-03-14T07:04:50;97647.63;;;9.57;82.25
72950;BME280;64868;45.710;9.590;2023-03-14T07:07:23;97621.97;;;9.50;81.29
72950;BME280;64868;45.710;9.590;2023-03-14T07:09:55;97630.47;;;9.66;81.40
72950;BME280;64868;45.710;9.590;2023-03-14T07:12:28;97630.59;;;9.65;80.62
72950;BME280;64868;45.710;9.590;2023-03-14T07:15:00;97638.50;;;9.87;80.60
72950;BME280;64868;45.710;9.590;2023-03-14T07:17:33;97642.69;;;10.01;79.96
72950;BME280;64868;45.710;9.590;2023-03-14T07:20:01;97652.44;;;10.13;79.28
72950;BME280;64868;45.710;9.590;2023-03-14T07:22:33;97632.47;;;9.84;78.55
72950;BME280;64868;45.710;9.590;2023-03-14T07:25:06;97647.28;;;10.01;80.17
72950;BME280;64868;45.710;9.590;2023-03-14T07:27:39;97655.56;;;10.18;78.75
72950;BME280;64868;45.710;9.590;2023-03-14T07:30:08;97668.22;;;10.19;78.71
72950;BME280;64868;45.710;9.590;2023-03-14T07:32:35;97667.91;;;10.22;78.28
72950;BME280;64868;45.710;9.590;2023-03-14T07:35:09;97645.41;;;10.20;79.39
72950;BME280;64868;45.710;9.590;2023-03-14T07:37:42;97648.56;;;10.45;78.30
72950;BME280;64868;45.710;9.590;2023-03-14T07:40:10;97653.28;;;10.53;78.58
72950;BME280;64868;45.710;9.590;2023-03-14T07:42:43;97668.22;;;10.58;78.25
72950;BME280;64868;45.710;9.590;2023-03-14T07:45:16;97674.66;;;10.67;78.17
72950;BME280;64868;45.710;9.590;2023-03-14T07:47:47;97667.03;;;10.70;77.29
72950;BME280;64868;45.710;9.590;2023-03-14T07:50:17;97671.19;;;10.75;77.60
72950;BME280;64868;45.710;9.590;2023-03-14T07:52:51;97678.22;;;10.77;77.04
72950;BME280;64868;45.710;9.590;2023-03-14T07:55:19;97665.03;;;10.73;76.75
72950;BME280;64868;45.710;9.590;2023-03-14T07:57:49;97660.56;;;10.71;76.82
72950;BME280;64868;45.710;9.590;2023-03-14T08:00:22;97641.25;;;10.65;77.36
72950;BME280;64868;45.710;9.590;2023-03-14T08:02:52;97652.97;;;10.75;78.25
72950;BME280;64868;45.710;9.590;2023-03-14T08:05:22;97674.19;;;10.81;78.13
72950;BME280;64868;45.710;9.590;2023-03-14T08:07:55;97677.09;;;10.70;78.01
72950;BME280;64868;45.710;9.590;2023-03-14T08:10:25;97662.44;;;10.71;76.61
72950;BME280;64868;45.710;9.590;2023-03-14T08:12:58;97679.09;;;10.78;77.38
72950;BME280;64868;45.710;9.590;2023-03-14T08:15:29;97677.53;;;10.65;78.47
72950;BME280;64868;45.710;9.590;2023-03-14T08:17:56;97686.41;;;10.67;78.17
72950;BME280;64868;45.710;9.590;2023-03-14T08:20:28;97687.88;;;10.62;78.41
72950;BME280;64868;45.710;9.590;2023-03-14T08:23:00;97691.28;;;10.64;78.79
72950;BME280;64868;45.710;9.590;2023-03-14T08:25:32;97684.53;;;10.68;79.20
72950;BME280;64868;45.710;9.590;2023-03-14T08:28:05;97690.41;;;10.83;76.88
72950;BME280;64868;45.710;9.590;2023-03-14T08:30:38;97671.59;;;10.89;76.38
72950;BME280;64868;45.710;9.590;2023-03-14T08:33:10;97669.81;;;11.45;75.58
72950;BME280;64868;45.710;9.590;2023-03-14T08:35:41;97673.19;;;11.94;74.88
72950;BME280;64868;45.710;9.590;2023-03-14T08:38:11;97670.63;;;12.28;72.60
72950;BME280;64868;45.710;9.590;2023-03-14T08:40:41;97664.34;;;12.54;72.97
72950;BME280;64868;45.710;9.590;2023-03-14T08:43:11;97656.69;;;12.75;71.96
72950;BME280;64868;45.710;9.590;2023-03-14T08:45:44;97669.75;;;13.07;70.23
72950;BME280;64868;45.710;9.590;2023-03-14T08:48:16;97664.03;;;12.75;71.09
72950;BME280;64868;45.710;9.590;2023-03-14T08:50:49;97677.63;;;12.84;71.07
72950;BME280;64868;45.710;9.590;2023-03-14T08:53:19;97663.84;;;12.76;70.82
72950;BME280;64868;45.710;9.590;2023-03-14T08:55:53;97651.44;;;12.82;71.08
72950;BME280;64868;45.710;9.590;2023-03-14T08:58:23;97651.09;;;13.37;69.37
72950;BME280;64868;45.710;9.590;2023-03-14T09:00:56;97643.31;;;13.50;67.55
72950;BME280;64868;45.710;9.590;2023-03-14T09:03:26;97643.94;;;13.36;66.56
72950;BME280;64868;45.710;9.590;2023-03-14T09:06:03;97648.84;;;13.67;66.03
72950;BME280;64868;45.710;9.590;2023-03-14T09:08:35;97645.91;;;14.10;64.83
72950;BME280;64868;45.710;9.590;2023-03-14T09:11:08;97653.41;;;16.03;59.71
72950;BME280;64868;45.710;9.590;2023-03-14T09:13:38;97639.97;;;18.55;51.57
72950;BME280;64868;45.710;9.590;2023-03-14T09:16:11;97655.47;;;22.81;42.19
72950;BME280;64868;45.710;9.590;2023-03-14T09:18:44;97641.94;;;27.34;30.43
72950;BME280;64868;45.710;9.590;2023-03-14T09:21:14;97641.34;;;31.31;24.60
72950;BME280;64868;45.710;9.590;2023-03-14T09:23:46;97664.00;;;34.11;20.77
72950;BME280;64868;45.710;9.590;2023-03-14T09:26:17;97642.06;;;29.86;25.53
72950;BME280;64868;45.710;9.590;2023-03-14T09:28:47;97650.50;;;25.59;31.82
72950;BME280;64868;45.710;9.590;2023-03-14T09:31:19;97664.41;;;20.94;40.48
72950;BME280;64868;45.710;9.590;2023-03-14T09:33:47;97633.56;;;20.29;42.53
72950;BME280;64868;45.710;9.590;2023-03-14T09:36:20;97637.66;;;18.01;48.27
72950;BME280;64868;45.710;9.590;2023-03-14T09:38:49;97649.69;;;18.51;48.61
72950;BME280;64868;45.710;9.590;2023-03-14T09:41:28;97633.03;;;22.38;37.67
72950;BME280;64868;45.710;9.590;2023-03-14T09:44:12;97647.88;;;29.15;27.39
72950;BME280;64868;45.710;9.590;2023-03-14T09:46:43;97637.13;;;30.56;23.82
72950;BME280;64868;45.710;9.590;2023-03-14T09:49:19;97640.50;;;28.21;27.72
72950;BME280;64868;45.710;9.590;2023-03-14T09:51:51;97638.13;;;22.48;36.94
72950;BME280;64868;45.710;9.590;2023-03-14T09:54:34;97628.22;;;23.47;36.81
72950;BME280;64868;45.710;9.590;2023-03-14T09:57:08;97626.91;;;21.31;40.14
72950;BME280;64868;45.710;9.590;2023-03-14T09:59:40;97623.28;;;19.06;45.79
72950;BME280;64868;45.710;9.590;2023-03-14T10:02:35;97619.91;;;26.23;31.41
72950;BME280;64868;45.710;9.590;2023-03-14T10:05:13;97633.44;;;31.43;24.09
72950;BME280;64868;45.710;9.590;2023-03-14T10:07:47;97615.03;;;32.33;22.06
72950;BME280;64868;45.710;9.590;2023-03-14T10:10:21;97627.28;;;34.30;19.69
72950;BME280;64868;45.710;9.590;2023-03-14T10:13:12;97633.19;;;34.81;18.38
72950;BME280;64868;45.710;9.590;2023-03-14T10:15:48;97639.72;;;36.42;16.61
72950;BME280;64868;45.710;9.590;2023-03-14T10:18:24;97632.88;;;36.43;16.81
72950;BME280;64868;45.710;9.590;2023-03-14T10:21:09;97629.19;;;38.06;16.02
72950;BME280;64868;45.710;9.590;2023-03-14T10:23:49;97618.41;;;30.87;23.21
72950;BME280;64868;45.710;9.590;2023-03-14T10:26:37;97624.78;;;30.62;23.96
72950;BME280;64868;45.710;9.590;2023-03-14T10:29:12;97615.81;;;32.59;20.73
72950;BME280;64868;45.710;9.590;2023-03-14T10:31:56;97614.72;;;28.19;25.20
72950;BME280;64868;45.710;9.590;2023-03-14T10:37:04;97610.28;;;27.50;27.45
72950;BME280;64868;45.710;9.590;2023-03-14T10:39:48;97608.16;;;28.79;25.46
72950;BME280;64868;45.710;9.590;2023-03-14T10:45:03;97606.91;;;20.22;40.83
72950;BME280;64868;45.710;9.590;2023-03-14T10:47:34;97605.06;;;18.68;44.15
72950;BME280;64868;45.710;9.590;2023-03-14T10:50:24;97598.38;;;18.78;44.93
72950;BME280;64868;45.710;9.590;2023-03-14T10:52:59;97582.09;;;19.45;43.78
72950;BME280;64868;45.710;9.590;2023-03-14T10:55:41;97593.09;;;18.40;46.51
72950;BME280;64868;45.710;9.590;2023-03-14T10:58:25;97585.13;;;18.09;47.23
72950;BME280;64868;45.710;9.590;2023-03-14T11:01:04;97584.91;;;17.74;48.44
72950;BME280;64868;45.710;9.590;2023-03-14T11:03:35;97580.16;;;17.23;49.16
72950;BME280;64868;45.710;9.590;2023-03-14T11:09:10;97569.91;;;17.02;51.66
72950;BME280;64868;45.710;9.590;2023-03-14T11:11:45;97572.19;;;18.52;47.88
72950;BME280;64868;45.710;9.590;2023-03-14T11:14:26;97567.94;;;18.50;46.61
72950;BME280;64868;45.710;9.590;2023-03-14T11:17:10;97561.19;;;18.31;49.29
72950;BME280;64868;45.710;9.590;2023-03-14T11:22:27;97552.69;;;19.03;46.81
72950;BME280;64868;45.710;9.590;2023-03-14T11:27:55;97555.53;;;19.92;43.82
72950;BME280;64868;45.710;9.590;2023-03-14T11:30:39;97536.25;;;19.23;43.92
72950;BME280;64868;45.710;9.590;2023-03-14T11:33:21;97552.38;;;19.61;43.78
72950;BME280;64868;45.710;9.590;2023-03-14T11:36:06;97555.31;;;18.83;45.04
72950;BME280;64868;45.710;9.590;2023-03-14T11:38:48;97553.25;;;17.70;48.11
72950;BME280;64868;45.710;9.590;2023-03-14T11:41:22;97542.38;;;17.17;49.08
72950;BME280;64868;45.710;9.590;2023-03-14T11:43:59;97556.16;;;17.02;50.35
72950;BME280;64868;45.710;9.590;2023-03-14T11:46:33;97550.63;;;17.47;49.39
72950;BME280;64868;45.710;9.590;2023-03-14T11:51:41;97551.38;;;18.71;46.47
72950;BME280;64868;45.710;9.590;2023-03-14T11:54:14;97552.25;;;19.34;44.29
72950;BME280;64868;45.710;9.590;2023-03-14T11:56:50;97550.47;;;20.03;42.72
72950;BME280;64868;45.710;9.590;2023-03-14T11:59:33;97535.09;;;19.87;42.47
72950;BME280;64868;45.710;9.590;2023-03-14T12:02:37;97528.88;;;20.86;39.81
72950;BME280;64868;45.710;9.590;2023-03-14T12:05:34;97526.91;;;21.13;40.44
72950;BME280;64868;45.710;9.590;2023-03-14T12:10:41;97537.78;;;20.35;40.13
72950;BME280;64868;45.710;9.590;2023-03-14T12:13:13;97540.06;;;18.66;45.95
72950;BME280;64868;45.710;9.590;2023-03-14T12:15:55;97536.59;;;18.14;48.78
72950;BME280;64868;45.710;9.590;2023-03-14T12:18:36;97532.06;;;18.07;48.77
72950;BME280;64868;45.710;9.590;2023-03-14T12:21:11;97513.47;;;18.86;46.26
72950;BME280;64868;45.710;9.590;2023-03-14T12:23:44;97526.16;;;19.43;45.18
72950;BME280;64868;45.710;9.590;2023-03-14T12:26:22;97515.88;;;18.68;46.56
72950;BME280;64868;45.710;9.590;2023-03-14T12:29:13;97517.06;;;18.59;45.53
72950;BME280;64868;45.710;9.590;2023-03-14T12:32:23;97499.16;;;17.18;50.08
72950;BME280;64868;45.710;9.590;2023-03-14T12:34:51;97486.94;;;17.06;49.95
72950;BME280;64868;45.710;9.590;2023-03-14T12:37:23;97495.28;;;16.83;52.87
72950;BME280;64868;45.710;9.590;2023-03-14T12:43:03;97468.88;;;18.89;44.49
72950;BME280;64868;45.710;9.590;2023-03-14T12:45:38;97476.53;;;19.77;42.99
72950;BME280;64868;45.710;9.590;2023-03-14T12:48:23;97492.53;;;19.81;41.71
72950;BME280;64868;45.710;9.590;2023-03-14T12:51:03;97482.31;;;19.82;41.91
72950;BME280;64868;45.710;9.590;2023-03-14T12:53:51;97472.47;;;19.66;44.05
72950;BME280;64868;45.710;9.590;2023-03-14T13:02:16;97419.75;;;18.22;46.27
72950;BME280;64868;45.710;9.590;2023-03-14T13:04:52;97445.66;;;17.78;48.04
72950;BME280;64868;45.710;9.590;2023-03-14T13:13:11;97416.06;;;17.14;50.02
72950;BME280;64868;45.710;9.590;2023-03-14T13:15:46;97431.97;;;16.97;49.55
72950;BME280;64868;45.710;9.590;2023-03-14T13:18:28;97432.91;;;16.60;50.19
72950;BME280;64868;45.710;9.590;2023-03-14T13:21:10;97408.72;;;16.03;52.80
72950;BME280;64868;45.710;9.590;2023-03-14T13:24:03;97431.63;;;16.33;53.28
72950;BME280;64868;45.710;9.590;2023-03-14T13:26:39;97411.72;;;15.93;53.75
72950;BME280;64868;45.710;9.590;2023-03-14T13:29:24;97429.81;;;16.25;52.35
72950;BME280;64868;45.710;9.590;2023-03-14T13:31:53;97423.03;;;16.81;51.35
72950;BME280;64868;45.710;9.590;2023-03-14T13:34:27;97436.91;;;17.02;50.61
72950;BME280;64868;45.710;9.590;2023-03-14T13:37:00;97408.59;;;17.44;48.82
72950;BME280;64868;45.710;9.590;2023-03-14T13:39:27;97429.31;;;17.98;47.88
72950;BME280;64868;45.710;9.590;2023-03-14T13:42:01;97411.88;;;18.47;45.75
72950;BME280;64868;45.710;9.590;2023-03-14T13:44:35;97409.81;;;17.78;46.72
72950;BME280;64868;45.710;9.590;2023-03-14T13:47:09;97410.78;;;17.70;47.81
72950;BME280;64868;45.710;9.590;2023-03-14T13:49:42;97411.66;;;17.35;48.24
72950;BME280;64868;45.710;9.590;2023-03-14T13:52:35;97408.03;;;17.13;49.40
72950;BME280;64868;45.710;9.590;2023-03-14T13:55:12;97402.34;;;16.99;49.54
72950;BME280;64868;45.710;9.590;2023-03-14T13:57:49;97405.69;;;18.17;47.81
72950;BME280;64868;45.710;9.590;2023-03-14T14:00:31;97415.81;;;18.10;47.28
72950;BME280;64868;45.710;9.590;2023-03-14T14:03:01;97370.97;;;17.15;48.30
72950;BME280;64868;45.710;9.590;2023-03-14T14:05:29;97399.31;;;16.94;49.82
72950;BME280;64868;45.710;9.590;2023-03-14T14:08:09;97381.75;;;16.66;51.02
72950;BME280;64868;45.710;9.590;2023-03-14T14:10:43;97393.53;;;17.25;48.64
72950;BME280;64868;45.710;9.590;2023-03-14T14:13:17;97398.44;;;17.09;48.74
72950;BME280;64868;45.710;9.590;2023-03-14T14:15:54;97401.34;;;17.58;48.60
72950;BME280;64868;45.710;9.590;2023-03-14T14:18:26;97390.38;;;18.08;47.78
72950;BME280;64868;45.710;9.590;2023-03-14T14:20:57;97386.88;;;18.55;46.17
72950;BME280;64868;45.710;9.590;2023-03-14T14:23:29;97386.16;;;19.16;46.13